Time;durP1;ratioP1;P1;durP2;ratioP2;P2;SDS_P1;SDS_P2;PMS_P1;PMS_P2;Temp;Humidity;BMP_temperature;BMP_pressure;BME280_temperature;BME280_humidity;BME280_pressure;Samples;Min_cycle;Max_cycle;Signal;HPM_P1;HPM_P2
2021/12/20 00:00:38;;;;;;;19.13;9.10;;;4.00;99.90;;;;;;5053702;28;20091;-64
2021/12/20 00:03:04;;;;;;;19.85;9.20;;;3.80;99.90;;;;;;5052899;28;20049;-64
2021/12/20 00:05:30;;;;;;;18.38;9.20;;;3.80;99.90;;;;;;5053537;28;20060;-64
2021/12/20 00:07:55;;;;;;;18.63;9.48;;;3.70;99.90;;;;;;5052728;28;20036;-65
2021/12/20 00:10:21;;;;;;;18.57;8.47;;;3.80;99.90;;;;;;5053015;28;20028;-65
2021/12/20 00:12:47;;;;;;;20.25;9.95;;;3.90;99.90;;;;;;5057018;28;20056;-65
2021/12/20 00:15:13;;;;;;;18.67;9.18;;;3.90;99.90;;;;;;5055714;28;20029;-65
2021/12/20 00:17:39;;;;;;;18.23;9.05;;;3.70;99.90;;;;;;5056335;28;20087;-64
2021/12/20 00:20:05;;;;;;;20.30;10.13;;;3.80;99.90;;;;;;5057647;28;20543;-63
2021/12/20 00:22:31;;;;;;;20.55;9.77;;;3.90;99.90;;;;;;5056488;28;20047;-64
2021/12/20 00:24:57;;;;;;;21.50;9.55;;;3.80;99.90;;;;;;5055881;28;20036;-63
2021/12/20 00:27:22;;;;;;;20.33;9.40;;;4.00;99.90;;;;;;5055690;28;20027;-65
2021/12/20 00:29:49;;;;;;;20.47;9.90;;;4.00;99.90;;;;;;5055256;28;20482;-64
2021/12/20 00:32:16;;;;;;;20.00;10.50;;;4.00;99.90;;;;;;5053125;28;20033;-62
2021/12/20 00:34:42;;;;;;;21.60;10.65;;;4.10;99.90;;;;;;5052940;28;20029;-63
2021/12/20 00:42:40;;;;;;;21.55;10.70;;;3.80;99.90;;;;;;5053346;28;20398;-64
2021/12/20 00:45:06;;;;;;;24.55;12.40;;;3.80;99.90;;;;;;5052605;28;20017;-65
2021/12/20 00:47:32;;;;;;;24.50;11.55;;;3.70;99.90;;;;;;5052772;28;20029;-64
2021/12/20 00:49:58;;;;;;;23.40;10.60;;;3.90;99.90;;;;;;5052751;28;20036;-63
2021/12/20 00:52:24;;;;;;;25.43;10.47;;;3.90;99.90;;;;;;5052486;28;20147;-64
2021/12/20 00:54:50;;;;;;;23.67;11.93;;;3.90;99.90;;;;;;5052871;28;20021;-64
2021/12/20 00:57:16;;;;;;;26.63;11.43;;;3.90;99.90;;;;;;5052587;28;20032;-65
2021/12/20 00:59:41;;;;;;;23.40;11.23;;;3.90;99.90;;;;;;5053754;28;20023;-65
2021/12/20 01:02:07;;;;;;;25.57;11.43;;;3.90;99.90;;;;;;5053818;28;20041;-65
2021/12/20 01:04:33;;;;;;;23.97;11.53;;;3.80;99.90;;;;;;5054507;28;20389;-64
2021/12/20 01:06:58;;;;;;;25.17;11.33;;;3.80;99.90;;;;;;5056978;28;20037;-65
2021/12/20 01:09:24;;;;;;;28.00;12.83;;;3.70;99.90;;;;;;5055224;28;20025;-65
2021/12/20 01:11:53;;;;;;;25.43;12.47;;;3.60;99.90;;;;;;5065502;28;20024;-64
2021/12/20 01:14:23;;;;;;;25.70;12.60;;;3.60;99.90;;;;;;5069263;28;20025;-64
2021/12/20 01:16:50;;;;;;;24.35;11.00;;;3.70;99.90;;;;;;5064720;28;20040;-64
2021/12/20 01:19:17;;;;;;;24.92;12.77;;;3.70;99.90;;;;;;5056371;28;20027;-64
2021/12/20 01:21:43;;;;;;;;;;;3.90;99.90;;;;;;5057154;28;20017;-64
2021/12/20 01:24:08;;;;;;;23.77;11.68;;;3.90;99.90;;;;;;5055946;28;20355;-65
2021/12/20 01:26:34;;;;;;;26.33;11.97;;;3.70;99.90;;;;;;5056399;28;20497;-64
2021/12/20 01:29:00;;;;;;;25.40;11.90;;;3.90;99.90;;;;;;5058166;28;20024;-65
2021/12/20 01:31:26;;;;;;;27.55;12.77;;;3.90;99.90;;;;;;5057330;28;20033;-64
2021/12/20 01:33:51;;;;;;;23.30;11.17;;;3.80;99.90;;;;;;5055687;28;20025;-65
2021/12/20 01:36:17;;;;;;;26.83;11.83;;;3.90;99.90;;;;;;5055994;28;20025;-64
2021/12/20 01:38:43;;;;;;;27.23;12.77;;;3.90;99.90;;;;;;5055576;28;20028;-66
2021/12/20 01:41:10;;;;;;;25.20;11.63;;;3.80;99.90;;;;;;5054527;28;20120;-63
2021/12/20 01:43:38;;;;;;;27.13;12.77;;;3.80;99.90;;;;;;5055343;28;20417;-64
2021/12/20 01:46:04;;;;;;;23.08;11.55;;;3.70;99.90;;;;;;5055495;28;20086;-64
2021/12/20 01:48:31;;;;;;;23.75;11.77;;;3.70;99.90;;;;;;5055365;28;20040;-63
2021/12/20 01:51:18;;;;;;;25.63;12.10;;;3.90;99.90;;;;;;5055328;28;20084;-65
2021/12/20 01:53:44;;;;;;;31.80;13.75;;;4.00;99.90;;;;;;5055222;28;20021;-64
2021/12/20 01:56:10;;;;;;;28.10;12.73;;;4.00;99.90;;;;;;5055765;28;20063;-64
2021/12/20 01:58:36;;;;;;;24.88;11.55;;;3.80;99.90;;;;;;5053987;28;20021;-64
2021/12/20 02:03:38;;;;;;;29.10;13.20;;;3.60;99.90;;;;;;5055848;28;20079;-64
2021/12/20 02:06:09;;;;;;;30.27;12.57;;;3.80;99.90;;;;;;5055134;28;20028;-64
2021/12/20 02:08:34;;;;;;;34.28;14.32;;;4.00;99.90;;;;;;5055231;28;20094;-64
2021/12/20 02:11:03;;;;;;;30.10;13.17;;;4.00;99.90;;;;;;5054448;28;20470;-64
2021/12/20 02:13:30;;;;;;;34.45;13.93;;;4.10;99.90;;;;;;5053931;28;20075;-64
2021/12/20 02:16:00;;;;;;;34.45;13.88;;;4.00;99.90;;;;;;5054786;28;20025;-64
2021/12/20 02:18:28;;;;;;;33.58;13.82;;;4.00;99.90;;;;;;5054528;28;20045;-63
2021/12/20 02:20:54;;;;;;;35.05;15.00;;;3.90;99.90;;;;;;5055203;28;20025;-63
2021/12/20 02:23:19;;;;;;;34.95;14.15;;;3.90;99.90;;;;;;5054952;28;20021;-63
2021/12/20 02:25:45;;;;;;;41.50;15.10;;;3.90;99.90;;;;;;5054887;28;20061;-63
2021/12/20 02:28:16;;;;;;;36.58;14.35;;;4.00;99.90;;;;;;5053455;28;20366;-63
2021/12/20 02:38:48;;;;;;;36.22;15.23;;;3.80;99.90;;;;;;5055268;28;20032;-64
2021/12/20 02:41:33;;;;;;;36.60;15.70;;;3.80;99.90;;;;;;5054948;28;20025;-64
2021/12/20 02:44:15;;;;;;;35.67;14.52;;;3.80;99.90;;;;;;5054464;28;20421;-63
2021/12/20 02:49:09;;;;;;;39.67;15.37;;;3.70;99.90;;;;;;5054440;28;20031;-64
2021/12/20 02:51:36;;;;;;;34.63;14.40;;;3.80;99.90;;;;;;5054313;28;20519;-64
2021/12/20 02:54:05;;;;;;;41.63;15.35;;;3.80;99.90;;;;;;5054394;28;20112;-63
2021/12/20 02:56:32;;;;;;;39.17;15.00;;;3.70;99.90;;;;;;5054567;28;20110;-63
2021/12/20 02:58:58;;;;;;;40.80;16.02;;;3.70;99.90;;;;;;5054211;28;20060;-63
2021/12/20 03:01:24;;;;;;;34.55;13.80;;;3.80;99.90;;;;;;5054324;28;20025;-64
2021/12/20 03:03:52;;;;;;;37.45;16.25;;;3.90;99.90;;;;;;5052764;28;20021;-64
2021/12/20 03:06:20;;;;;;;39.58;15.32;;;3.90;99.90;;;;;;5054127;28;20021;-63
2021/12/20 03:08:50;;;;;;;38.08;15.80;;;3.90;99.90;;;;;;5054556;28;20055;-63
2021/12/20 03:11:16;;;;;;;39.95;15.20;;;3.90;99.90;;;;;;5054662;28;20025;-64
2021/12/20 03:13:45;;;;;;;35.97;13.77;;;3.70;99.90;;;;;;5054671;28;20049;-63
2021/12/20 03:16:10;;;;;;;39.03;14.68;;;3.70;99.90;;;;;;5053725;28;20083;-64
2021/12/20 03:18:36;;;;;;;38.17;15.13;;;3.70;99.90;;;;;;5053609;28;20433;-63
2021/12/20 03:21:02;;;;;;;38.70;15.67;;;3.70;99.90;;;;;;5052360;28;20017;-64
2021/12/20 03:23:28;;;;;;;42.03;17.00;;;3.60;99.90;;;;;;5053529;28;20028;-63
2021/12/20 03:25:53;;;;;;;40.63;16.23;;;3.60;99.90;;;;;;5053551;28;20032;-65
2021/12/20 03:28:19;;;;;;;43.27;16.53;;;3.60;99.90;;;;;;5053219;28;20029;-64
2021/12/20 03:30:44;;;;;;;39.17;15.07;;;3.60;99.90;;;;;;5054488;28;20382;-65
2021/12/20 03:33:11;;;;;;;41.87;15.70;;;3.60;99.90;;;;;;5053326;28;20025;-64
2021/12/20 03:35:36;;;;;;;37.97;15.40;;;3.70;99.90;;;;;;5053638;28;20039;-63
2021/12/20 03:38:02;;;;;;;45.15;16.48;;;3.60;99.90;;;;;;5053431;28;20037;-64
2021/12/20 03:40:28;;;;;;;44.50;15.80;;;3.80;99.90;;;;;;5051995;28;20037;-64
2021/12/20 03:42:54;;;;;;;33.42;14.75;;;3.80;99.90;;;;;;5053185;28;20029;-64
2021/12/20 03:45:20;;;;;;;37.53;16.20;;;3.70;99.90;;;;;;5054006;28;20025;-62
2021/12/20 03:47:46;;;;;;;40.63;15.70;;;3.70;99.90;;;;;;5053038;28;20029;-64
2021/12/20 03:50:13;;;;;;;39.58;14.98;;;3.70;99.90;;;;;;5053228;28;20079;-63
2021/12/20 03:52:39;;;;;;;39.67;15.90;;;3.70;99.90;;;;;;5052891;28;20037;-64
2021/12/20 03:55:06;;;;;;;44.20;16.50;;;3.80;99.90;;;;;;5052968;28;20032;-64
2021/12/20 03:57:32;;;;;;;38.97;15.18;;;3.60;99.90;;;;;;5052925;28;20032;-64
2021/12/20 03:59:58;;;;;;;40.92;17.10;;;3.60;99.90;;;;;;5051645;28;20021;-64
2021/12/20 04:02:25;;;;;;;35.87;14.40;;;3.60;99.90;;;;;;5053001;28;20115;-64
2021/12/20 04:04:50;;;;;;;;;;;3.60;99.90;;;;;;5052185;28;20024;-64
2021/12/20 04:07:16;;;;;;;38.83;14.82;;;3.70;99.90;;;;;;5051746;28;19905;-63
2021/12/20 04:09:42;;;;;;;37.20;14.35;;;3.70;99.90;;;;;;5053075;28;20070;-64
2021/12/20 04:12:08;;;;;;;38.00;16.03;;;3.70;99.90;;;;;;5053011;28;20116;-63
2021/12/20 04:14:34;;;;;;;38.55;14.20;;;3.70;99.90;;;;;;5052923;28;20036;-64
2021/12/20 04:17:00;;;;;;;37.17;14.20;;;3.70;99.90;;;;;;5052899;28;20033;-63
2021/12/20 04:19:25;;;;;;;39.93;16.17;;;3.80;99.90;;;;;;5053285;28;20512;-66
2021/12/20 04:21:51;;;;;;;34.47;14.63;;;3.70;99.90;;;;;;5051879;28;20021;-66
2021/12/20 04:24:17;;;;;;;38.13;14.80;;;3.90;99.90;;;;;;5051947;28;20017;-67
2021/12/20 04:26:42;;;;;;;33.83;14.73;;;3.80;99.90;;;;;;5051975;28;20020;-67
2021/12/20 04:29:09;;;;;;;42.93;16.17;;;3.70;99.90;;;;;;5053555;28;20059;-65
2021/12/20 04:31:36;;;;;;;36.60;15.35;;;3.70;99.90;;;;;;5053658;28;20024;-67
2021/12/20 04:34:02;;;;;;;37.15;14.38;;;3.70;99.90;;;;;;5053877;28;20025;-68
2021/12/20 04:36:29;;;;;;;;;;;3.80;99.90;;;;;;5052579;28;20516;-68
2021/12/20 04:38:55;;;;;;;42.60;16.65;;;3.70;99.90;;;;;;5054211;28;19912;-65
2021/12/20 04:41:21;;;;;;;40.80;13.95;;;3.70;99.90;;;;;;5057400;28;20413;-66
2021/12/20 04:43:46;;;;;;;42.97;15.47;;;3.60;99.90;;;;;;5056508;28;20025;-66
2021/12/20 04:46:12;;;;;;;39.07;15.07;;;3.50;99.90;;;;;;5058433;28;20363;-65
2021/12/20 04:48:38;;;;;;;33.00;14.43;;;3.40;99.90;;;;;;5059155;28;20025;-63
2021/12/20 04:51:04;;;;;;;35.33;13.67;;;3.40;99.90;;;;;;5061004;28;20032;-66
2021/12/20 04:53:29;;;;;;;40.35;16.40;;;3.50;99.90;;;;;;5061186;28;20064;-65
2021/12/20 04:55:55;;;;;;;35.73;16.30;;;3.50;99.90;;;;;;5058645;28;20051;-64
2021/12/20 04:58:21;;;;;;;45.73;17.33;;;3.60;99.90;;;;;;5058630;28;20071;-64
2021/12/20 05:00:47;;;;;;;42.55;16.17;;;3.80;99.90;;;;;;5056662;28;20021;-66
2021/12/20 05:03:12;;;;;;;49.05;20.15;;;3.70;99.90;;;;;;5056881;28;20025;-64
2021/12/20 05:05:39;;;;;;;42.83;18.07;;;3.70;99.90;;;;;;5058445;28;20028;-64
2021/12/20 05:08:05;;;;;;;37.63;14.80;;;3.50;99.90;;;;;;5061904;28;20029;-63
2021/12/20 05:10:34;;;;;;;36.13;14.38;;;3.60;99.90;;;;;;5061300;28;20029;-65
2021/12/20 05:13:09;;;;;;;44.28;17.30;;;3.60;99.90;;;;;;5064345;28;20033;-69
2021/12/20 05:15:36;;;;;;;47.63;18.08;;;3.60;99.90;;;;;;5061420;28;20028;-64
2021/12/20 05:18:02;;;;;;;49.20;18.77;;;3.60;99.90;;;;;;5060236;28;20086;-63
2021/12/20 05:20:28;;;;;;;39.30;15.60;;;3.50;99.90;;;;;;5057540;28;20106;-68
2021/12/20 05:22:56;;;;;;;37.67;15.30;;;3.50;99.90;;;;;;5057085;28;20462;-63
2021/12/20 05:25:21;;;;;;;40.95;14.75;;;3.60;99.90;;;;;;5055102;28;20051;-63
2021/12/20 05:27:47;;;;;;;42.53;15.57;;;3.60;99.90;;;;;;5055980;28;20024;-63
2021/12/20 05:30:14;;;;;;;43.10;15.55;;;3.30;99.90;;;;;;5056284;28;20036;-64
2021/12/20 05:32:40;;;;;;;40.53;14.73;;;3.40;99.90;;;;;;5061012;28;20029;-66
2021/12/20 05:35:07;;;;;;;56.08;21.27;;;3.60;99.90;;;;;;5062345;28;20037;-63
2021/12/20 05:37:34;;;;;;;46.50;17.73;;;3.50;99.90;;;;;;5060408;28;20032;-63
2021/12/20 05:39:59;;;;;;;42.30;16.00;;;3.40;99.90;;;;;;5056363;28;20017;-64
2021/12/20 05:42:25;;;;;;;43.67;16.10;;;3.60;99.90;;;;;;5055934;28;20478;-64
2021/12/20 05:44:51;;;;;;;33.40;14.33;;;3.70;99.90;;;;;;5055849;28;20032;-63
2021/12/20 05:47:22;;;;;;;40.00;15.52;;;3.80;99.90;;;;;;5055622;28;20053;-66
2021/12/20 05:49:48;;;;;;;34.60;13.18;;;3.70;99.90;;;;;;5054013;28;20029;-64
2021/12/20 05:52:13;;;;;;;38.95;14.23;;;3.70;99.90;;;;;;5055613;28;20032;-64
2021/12/20 05:54:39;;;;;;;34.13;13.20;;;3.70;99.90;;;;;;5055633;28;20397;-64
2021/12/20 05:57:05;;;;;;;35.85;13.80;;;3.70;99.90;;;;;;5058219;28;20096;-65
2021/12/20 05:59:31;;;;;;;32.60;13.90;;;3.80;99.90;;;;;;5055766;28;20052;-65
2021/12/20 06:01:56;;;;;;;30.83;13.40;;;3.80;99.90;;;;;;5055432;28;20449;-65
2021/12/20 06:04:22;;;;;;;35.87;14.20;;;3.60;99.90;;;;;;5055216;28;20515;-64
2021/12/20 06:06:48;;;;;;;33.07;13.00;;;3.60;99.90;;;;;;5055175;28;20017;-65
2021/12/20 06:09:13;;;;;;;33.30;14.03;;;3.70;99.90;;;;;;5055148;28;20025;-65
2021/12/20 06:11:39;;;;;;;44.80;17.30;;;3.90;99.90;;;;;;5056730;28;20470;-65
2021/12/20 06:14:05;;;;;;;31.27;12.77;;;3.70;99.90;;;;;;5055426;28;20562;-65
2021/12/20 06:16:30;;;;;;;32.03;13.83;;;3.80;99.90;;;;;;5055027;28;20056;-65
2021/12/20 06:18:56;;;;;;;37.30;15.17;;;3.70;99.90;;;;;;5054952;28;20025;-64
2021/12/20 06:21:23;;;;;;;48.00;20.87;;;3.60;99.90;;;;;;5055271;28;20313;-64
2021/12/20 06:23:49;;;;;;;37.97;14.10;;;3.60;99.90;;;;;;5055546;28;20108;-64
2021/12/20 06:26:15;;;;;;;35.50;15.30;;;3.70;99.90;;;;;;5055465;28;20029;-65
2021/12/20 06:28:42;;;;;;;41.17;16.17;;;3.80;99.90;;;;;;5055383;28;20040;-62
2021/12/20 06:31:07;;;;;;;;;;;3.80;99.90;;;;;;5055800;28;20450;-62
2021/12/20 06:33:33;;;;;;;34.45;15.60;;;3.70;99.90;;;;;;5055234;28;19911;-67
2021/12/20 06:35:59;;;;;;;34.27;14.87;;;3.60;99.90;;;;;;5055611;28;20028;-67
2021/12/20 06:38:25;;;;;;;32.83;13.37;;;3.70;99.90;;;;;;5054200;28;20059;-67
2021/12/20 06:40:52;;;;;;;;;;;3.70;99.90;;;;;;5056245;28;20028;-67
2021/12/20 06:43:18;;;;;;;31.98;13.57;;;3.70;99.90;;;;;;5054572;28;19911;-67
2021/12/20 06:45:45;;;;;;;33.13;13.80;;;3.90;99.90;;;;;;5056051;28;20020;-66
2021/12/20 06:48:11;;;;;;;35.50;13.90;;;4.00;99.90;;;;;;5054619;28;20035;-67
2021/12/20 06:50:37;;;;;;;36.67;14.90;;;4.00;99.90;;;;;;5055994;28;20080;-66
2021/12/20 06:53:05;;;;;;;33.60;15.33;;;4.00;99.90;;;;;;5055844;28;20110;-68
2021/12/20 06:55:32;;;;;;;34.00;14.05;;;4.00;99.90;;;;;;5054444;28;20692;-67
2021/12/20 06:57:58;;;;;;;35.88;14.98;;;3.90;99.90;;;;;;5055627;28;20036;-67
2021/12/20 07:00:24;;;;;;;34.13;14.45;;;3.70;99.90;;;;;;5054569;28;20478;-67
2021/12/20 07:02:50;;;;;;;36.45;14.55;;;3.70;99.90;;;;;;5054834;28;20525;-67
2021/12/20 07:05:15;;;;;;;35.33;15.10;;;3.80;99.90;;;;;;5055197;28;20063;-67
2021/12/20 07:07:41;;;;;;;35.55;14.88;;;3.80;99.90;;;;;;5054076;28;20025;-67
2021/12/20 07:10:08;;;;;;;35.07;14.50;;;3.80;99.90;;;;;;5054204;28;20131;-67
2021/12/20 07:12:35;;;;;;;36.55;14.80;;;3.80;99.90;;;;;;5054986;28;20624;-67
2021/12/20 07:15:03;;;;;;;37.30;14.65;;;3.60;99.90;;;;;;5055145;28;20056;-67
2021/12/20 07:17:29;;;;;;;37.63;14.63;;;3.60;99.90;;;;;;5055130;28;20520;-67
2021/12/20 07:19:55;;;;;;;36.65;15.23;;;3.60;99.90;;;;;;5056205;28;20035;-67
2021/12/20 07:22:21;;;;;;;39.38;15.00;;;3.60;99.90;;;;;;5055254;28;20440;-67
2021/12/20 07:24:46;;;;;;;33.30;13.83;;;3.50;99.90;;;;;;5056510;28;20029;-67
2021/12/20 07:27:12;;;;;;;37.40;15.57;;;3.50;99.90;;;;;;5056762;28;20040;-67
2021/12/20 07:29:38;;;;;;;39.80;15.83;;;3.80;99.90;;;;;;5055568;28;20032;-67
2021/12/20 07:32:05;;;;;;;35.03;15.15;;;3.70;99.90;;;;;;5054164;28;20025;-66
2021/12/20 07:34:30;;;;;;;35.63;15.00;;;3.80;99.90;;;;;;5054780;28;20120;-66
2021/12/20 07:36:56;;;;;;;33.70;14.83;;;3.90;99.90;;;;;;5055627;28;20462;-66
2021/12/20 07:39:22;;;;;;;35.93;16.37;;;3.80;99.90;;;;;;5054993;28;20048;-67
2021/12/20 07:41:49;;;;;;;42.47;15.73;;;3.70;99.90;;;;;;5055293;28;20640;-67
2021/12/20 07:44:15;;;;;;;37.97;14.27;;;3.70;99.90;;;;;;5056271;28;20024;-67
2021/12/20 07:46:40;;;;;;;40.15;15.98;;;3.70;99.90;;;;;;5055684;28;20052;-68
2021/12/20 07:49:06;;;;;;;38.40;15.97;;;3.80;99.90;;;;;;5054927;28;20355;-67
2021/12/20 07:51:32;;;;;;;36.47;14.93;;;3.70;99.90;;;;;;5054077;28;20108;-67
2021/12/20 07:53:57;;;;;;;33.03;15.07;;;3.80;99.90;;;;;;5054447;28;20025;-66
2021/12/20 07:56:23;;;;;;;37.50;15.37;;;3.90;99.90;;;;;;5054212;28;20098;-67
2021/12/20 07:58:48;;;;;;;41.17;17.53;;;3.80;99.90;;;;;;5056736;28;20025;-67
2021/12/20 08:01:16;;;;;;;39.47;16.80;;;3.80;99.90;;;;;;5054664;28;20427;-66
2021/12/20 08:03:42;;;;;;;44.03;17.58;;;3.90;99.90;;;;;;5054418;28;20097;-67
2021/12/20 08:06:08;;;;;;;42.70;17.38;;;3.80;99.90;;;;;;5055871;28;20044;-66
2021/12/20 08:08:34;;;;;;;38.50;15.95;;;3.90;99.90;;;;;;5054349;28;20040;-67
2021/12/20 08:11:00;;;;;;;43.17;16.10;;;3.90;99.90;;;;;;5056501;28;20387;-67
2021/12/20 08:13:26;;;;;;;34.63;14.53;;;3.90;99.90;;;;;;5055770;28;20033;-66
2021/12/20 08:15:51;;;;;;;43.00;17.93;;;3.90;99.90;;;;;;5056429;28;20287;-67
2021/12/20 08:18:17;;;;;;;39.13;17.67;;;3.90;99.90;;;;;;5055524;28;20659;-66
2021/12/20 08:20:43;;;;;;;38.97;16.07;;;3.80;99.90;;;;;;5057048;28;20027;-68
2021/12/20 08:23:08;;;;;;;35.27;16.50;;;3.90;99.90;;;;;;5055436;28;20039;-66
2021/12/20 08:25:36;;;;;;;40.20;17.77;;;3.90;99.90;;;;;;5056578;28;20275;-67
2021/12/20 08:28:02;;;;;;;37.78;16.00;;;4.00;99.90;;;;;;5058643;28;20092;-66
2021/12/20 08:30:28;;;;;;;33.97;14.52;;;4.00;99.90;;;;;;5057735;28;20032;-66
2021/12/20 08:32:54;;;;;;;29.63;13.43;;;4.00;99.90;;;;;;5058791;28;20025;-66
2021/12/20 08:35:20;;;;;;;32.40;14.73;;;4.10;99.90;;;;;;5058845;28;20029;-66
2021/12/20 08:37:46;;;;;;;34.47;15.80;;;4.10;99.90;;;;;;5057417;28;20033;-67
2021/12/20 08:40:14;;;;;;;35.35;14.45;;;4.10;99.90;;;;;;5056397;28;20029;-66
2021/12/20 08:42:42;;;;;;;37.42;16.58;;;4.10;99.90;;;;;;5054066;28;20024;-67
2021/12/20 08:45:08;;;;;;;30.45;15.02;;;4.10;99.90;;;;;;5055056;28;20017;-66
2021/12/20 08:47:35;;;;;;;29.67;14.90;;;4.10;99.90;;;;;;5053570;28;20048;-66
2021/12/20 08:50:02;;;;;;;32.03;15.43;;;4.20;99.90;;;;;;5054711;28;20029;-65
2021/12/20 08:52:28;;;;;;;33.25;15.30;;;4.10;99.90;;;;;;5055547;28;20032;-67
2021/12/20 08:54:54;;;;;;;31.23;14.40;;;4.20;99.90;;;;;;5055766;28;20029;-66
2021/12/20 08:57:20;;;;;;;36.42;16.38;;;4.30;99.90;;;;;;5054285;28;20059;-67
2021/12/20 08:59:46;;;;;;;31.80;15.10;;;4.30;99.90;;;;;;5054775;28;20033;-68
2021/12/20 09:02:12;;;;;;;30.13;14.40;;;4.30;99.90;;;;;;5055461;28;20065;-66
2021/12/20 09:04:38;;;;;;;32.78;15.93;;;4.40;99.90;;;;;;5053924;28;20025;-67
2021/12/20 09:07:07;;;;;;;34.17;14.85;;;4.40;99.90;;;;;;5053551;28;20021;-67
2021/12/20 09:09:38;;;;;;;32.38;14.68;;;4.50;99.90;;;;;;5054241;28;20108;-67
2021/12/20 09:12:06;;;;;;;28.65;13.45;;;4.50;99.90;;;;;;5055885;28;20498;-67
2021/12/20 09:14:33;;;;;;;41.45;14.75;;;4.50;99.90;;;;;;5053735;28;20021;-66
2021/12/20 09:17:00;;;;;;;31.63;14.13;;;4.60;99.90;;;;;;5053593;28;20021;-66
2021/12/20 09:19:26;;;;;;;30.92;13.88;;;4.60;99.90;;;;;;5053975;28;20025;-66
2021/12/20 09:21:52;;;;;;;35.35;15.70;;;4.60;99.90;;;;;;5054825;28;20119;-66
2021/12/20 09:24:17;;;;;;;28.75;13.90;;;4.60;99.90;;;;;;5054969;28;20036;-66
2021/12/20 09:26:43;;;;;;;30.57;14.33;;;4.70;99.90;;;;;;5058235;28;20051;-65
2021/12/20 09:29:09;;;;;;;30.13;14.43;;;4.80;99.90;;;;;;5058704;28;20056;-66
2021/12/20 09:31:34;;;;;;;28.30;14.23;;;4.90;99.90;;;;;;5057497;28;20393;-66
2021/12/20 09:34:00;;;;;;;33.70;14.97;;;4.90;99.90;;;;;;5059117;28;20032;-66
2021/12/20 09:36:29;;;;;;;29.10;13.80;;;4.90;99.90;;;;;;5061525;28;20506;-66
2021/12/20 09:38:58;;;;;;;30.25;14.25;;;5.10;99.90;;;;;;5058816;28;20490;-66
2021/12/20 09:42:00;;;;;;;32.50;14.73;;;5.10;99.90;;;;;;5058342;28;20021;-67
2021/12/20 09:44:13;;;;;;;30.42;14.32;;;5.10;99.90;;;;;;5057877;28;20029;-67
2021/12/20 09:46:40;;;;;;;31.23;14.60;;;5.20;99.90;;;;;;5054485;28;20174;-67
2021/12/20 09:49:07;;;;;;;37.47;16.42;;;5.20;99.90;;;;;;5054337;28;20071;-67
2021/12/20 09:51:34;;;;;;;32.67;14.85;;;5.30;99.90;;;;;;5055223;28;20033;-67
2021/12/20 09:53:59;;;;;;;41.80;18.48;;;5.50;99.90;;;;;;5055865;28;20060;-66
2021/12/20 09:56:28;;;;;;;38.80;16.47;;;5.40;99.90;;;;;;5055774;28;20036;-67
2021/12/20 09:58:59;;;;;;;38.17;16.10;;;5.40;99.90;;;;;;5055050;28;20104;-67
2021/12/20 10:01:27;;;;;;;33.63;15.43;;;5.30;99.90;;;;;;5055377;28;20527;-67
2021/12/20 10:03:53;;;;;;;33.28;16.08;;;5.30;99.90;;;;;;5055057;28;20025;-67
2021/12/20 10:06:20;;;;;;;30.25;14.18;;;5.40;99.90;;;;;;5055515;28;20028;-68
2021/12/20 10:08:55;;;;;;;;;;;5.40;99.90;;;;;;5056251;28;20478;-67
2021/12/20 10:11:29;;;;;;;32.67;15.07;;;5.40;99.90;;;;;;5055185;28;20289;-67
2021/12/20 10:14:07;;;;;;;35.53;16.77;;;5.50;99.90;;;;;;5053362;28;20448;-66
2021/12/20 10:16:35;;;;;;;30.45;14.05;;;5.60;99.90;;;;;;5053965;28;20052;-66
2021/12/20 10:19:01;;;;;;;30.85;14.18;;;5.70;99.90;;;;;;5056852;28;20386;-67
2021/12/20 10:21:36;;;;;;;32.55;14.98;;;5.80;99.90;;;;;;5053823;28;20017;-67
2021/12/20 10:24:01;;;;;;;33.85;15.52;;;5.80;99.90;;;;;;5054851;28;20029;-67
2021/12/20 10:26:27;;;;;;;30.13;14.40;;;5.80;99.90;;;;;;5053558;28;20024;-67
2021/12/20 10:28:53;;;;;;;33.80;15.27;;;6.10;99.90;;;;;;5054792;28;20624;-67
2021/12/20 10:31:25;;;;;;;33.58;16.60;;;6.00;99.90;;;;;;5053525;28;20405;-67
2021/12/20 10:33:52;;;;;;;33.85;15.45;;;6.10;99.90;;;;;;5053339;28;20071;-67
2021/12/20 10:36:18;;;;;;;32.67;15.32;;;6.00;99.90;;;;;;5055017;28;20033;-67
2021/12/20 10:38:45;;;;;;;35.17;16.35;;;6.10;99.90;;;;;;5053498;28;20530;-69
2021/12/20 10:41:24;;;;;;;32.10;14.32;;;6.00;99.90;;;;;;5054873;28;20151;-67
2021/12/20 10:43:54;;;;;;;34.65;16.98;;;6.00;99.90;;;;;;5054969;28;20021;-67
2021/12/20 10:46:23;;;;;;;32.33;15.48;;;6.10;99.90;;;;;;5054824;28;20021;-68
2021/12/20 10:48:58;;;;;;;34.83;15.68;;;6.20;99.90;;;;;;5055152;28;20040;-67
2021/12/20 10:51:32;;;;;;;30.52;15.13;;;6.20;99.90;;;;;;5054710;28;20147;-68
2021/12/20 10:54:02;;;;;;;34.45;15.55;;;6.20;99.90;;;;;;5054599;28;20056;-66
2021/12/20 10:56:30;;;;;;;35.63;16.60;;;6.20;99.90;;;;;;5054620;28;20043;-67
2021/12/20 10:58:57;;;;;;;34.83;16.10;;;6.10;99.90;;;;;;5054147;28;20021;-67
2021/12/20 11:04:19;;;;;;;35.88;17.85;;;6.20;99.90;;;;;;5054009;28;20116;-68
2021/12/20 11:09:19;;;;;;;35.05;16.02;;;6.20;99.90;;;;;;5054662;28;20093;-67
2021/12/20 11:11:54;;;;;;;34.58;16.83;;;6.20;99.90;;;;;;5052615;28;20389;-68
2021/12/20 11:14:23;;;;;;;29.75;15.13;;;6.30;99.90;;;;;;5052690;28;20036;-67
2021/12/20 11:16:54;;;;;;;30.67;15.25;;;6.40;99.90;;;;;;5054177;28;20040;-66
2021/12/20 11:19:32;;;;;;;33.72;15.32;;;6.40;99.90;;;;;;5053153;28;20025;-67
2021/12/20 11:22:02;;;;;;;31.65;15.10;;;6.30;99.90;;;;;;5052445;28;20383;-67
2021/12/20 11:24:30;;;;;;;29.45;14.27;;;6.10;99.90;;;;;;5054094;28;20013;-67
2021/12/20 11:26:57;;;;;;;33.72;14.77;;;5.80;99.90;;;;;;5054167;28;20032;-67
2021/12/20 11:29:24;;;;;;;29.10;15.23;;;5.70;99.90;;;;;;5052302;28;20493;-66
2021/12/20 11:31:50;;;;;;;32.08;14.45;;;5.50;99.90;;;;;;5053863;28;20097;-67
2021/12/20 11:34:16;;;;;;;29.30;15.15;;;5.40;99.90;;;;;;5053317;28;20484;-67
2021/12/20 11:36:43;;;;;;;32.08;15.15;;;5.50;99.90;;;;;;5053642;28;20481;-66
2021/12/20 11:39:09;;;;;;;34.30;14.98;;;5.40;99.90;;;;;;5053905;28;20025;-66
2021/12/20 11:41:35;;;;;;;30.92;14.77;;;5.40;99.90;;;;;;5053373;28;20028;-67
2021/12/20 11:44:04;;;;;;;34.38;15.23;;;5.40;99.90;;;;;;5053629;28;20363;-68
2021/12/20 11:46:47;;;;;;;32.25;14.65;;;5.40;99.90;;;;;;5053608;28;20029;-67
2021/12/20 11:49:21;;;;;;;31.90;14.18;;;5.50;99.90;;;;;;5053610;28;20512;-67
2021/12/20 11:52:22;;;;;;;28.08;13.98;;;5.60;99.90;;;;;;5053660;28;20486;-66
2021/12/20 11:54:52;;;;;;;32.78;14.38;;;5.80;99.90;;;;;;5015024;28;20186;-68
2021/12/20 11:57:30;;;;;;;30.73;13.90;;;5.80;99.90;;;;;;5049706;28;20037;-66
2021/12/20 12:00:00;;;;;;;32.42;15.90;;;5.80;99.90;;;;;;5051896;28;20027;-67
2021/12/20 12:02:29;;;;;;;29.13;13.30;;;5.90;99.90;;;;;;5051481;28;20032;-67
2021/12/20 12:04:58;;;;;;;30.30;13.38;;;5.70;99.90;;;;;;5053330;28;20021;-68
2021/12/20 12:07:25;;;;;;;32.85;14.98;;;5.60;99.90;;;;;;5053087;28;20021;-67
2021/12/20 12:10:27;;;;;;;30.85;13.75;;;5.60;99.90;;;;;;5053338;28;20389;-67
2021/12/20 12:13:00;;;;;;;31.40;13.02;;;5.70;99.90;;;;;;5049180;28;20482;-68
2021/12/20 12:15:43;;;;;;;30.95;14.50;;;5.90;99.90;;;;;;5053038;28;20024;-67
2021/12/20 12:18:10;;;;;;;28.33;12.70;;;5.90;99.90;;;;;;5053490;28;20025;-67
2021/12/20 12:20:53;;;;;;;27.00;13.88;;;6.00;99.90;;;;;;5051655;28;20021;-66
2021/12/20 12:23:23;;;;;;;29.63;13.90;;;5.90;99.90;;;;;;5052950;28;20025;-64
2021/12/20 12:25:50;;;;;;;29.25;14.43;;;5.80;99.90;;;;;;5052951;28;20024;-63
2021/12/20 12:28:19;;;;;;;28.48;12.82;;;5.80;99.90;;;;;;5052561;28;20028;-63
2021/12/20 12:30:56;;;;;;;26.25;12.38;;;5.80;99.90;;;;;;5053834;28;20339;-67
2021/12/20 12:33:24;;;;;;;32.03;13.30;;;5.90;99.90;;;;;;5052934;28;20474;-66
2021/12/20 12:35:51;;;;;;;25.70;13.25;;;5.90;99.90;;;;;;5053296;28;20115;-68
2021/12/20 12:38:28;;;;;;;26.77;12.70;;;6.10;99.90;;;;;;5052947;28;20067;-66
2021/12/20 12:41:06;;;;;;;24.57;11.83;;;6.10;99.90;;;;;;5052153;28;20013;-62
2021/12/20 12:43:52;;;;;;;32.13;11.88;;;6.20;99.90;;;;;;5052540;28;20027;-62
2021/12/20 12:46:36;;;;;;;27.55;12.10;;;6.10;99.90;;;;;;5052689;28;20107;-62
2021/12/20 12:49:21;;;;;;;21.15;11.00;;;5.90;99.90;;;;;;5052872;28;20032;-63
2021/12/20 12:51:51;;;;;;;18.00;9.48;;;5.90;99.90;;;;;;5052875;28;20390;-60
2021/12/20 12:54:53;;;;;;;19.65;10.27;;;5.80;99.90;;;;;;5052699;28;20466;-64
2021/12/20 12:57:18;;;;;;;23.20;9.75;;;5.80;99.90;;;;;;5052472;28;20029;-63
2021/12/20 12:59:50;;;;;;;20.23;9.30;;;5.80;99.90;;;;;;5053207;28;20493;-63
2021/12/20 13:02:25;;;;;;;24.70;9.45;;;5.80;99.90;;;;;;5056784;28;20063;-62
2021/12/20 13:05:16;;;;;;;22.00;10.30;;;5.70;99.90;;;;;;5056687;28;20096;-63